Time;durP1;ratioP1;P1;durP2;ratioP2;P2;SDS_P1;SDS_P2;PMS_P1;PMS_P2;Temp;Humidity;BMP_temperature;BMP_pressure;BME280_temperature;BME280_humidity;BME280_pressure;Samples;Min_cycle;Max_cycle;Signal;HPM_P1;HPM_P2
2022/06/03 00:00:53;;;;;;;;;;;;;;;24.15;50.72;99279.69;2096494;28;19916;-49
2022/06/03 00:02:08;;;;;;;;;;;;;;;24.15;50.62;99279.69;2093433;28;19994;-48
2022/06/03 00:03:15;;;;;;;;;;;;;;;24.15;50.67;99279.69;2087481;28;19920;-48
2022/06/03 00:04:15;;;;;;;;;;;;;;;24.14;50.66;99278.00;2092917;28;19967;-47
2022/06/03 00:05:38;;;;;;;;;;;;;;;24.14;50.67;99283.50;2093498;28;19930;-51
2022/06/03 00:06:54;;;;;;;;;;;;;;;24.14;50.66;99286.25;2092244;27;19916;-49
2022/06/03 00:08:13;;;;;;;;;;;;;;;24.15;50.70;99282.44;2087598;28;19966;-47
2022/06/03 00:09:38;;;;;;;;;;;;;;;24.13;50.74;99288.16;2091303;28;20036;-47
2022/06/03 00:10:57;;;;;;;;;;;;;;;24.14;50.74;99286.25;2086076;28;20472;-47
2022/06/03 00:12:00;;;;;;;;;;;;;;;24.15;50.79;99287.94;2090680;28;19916;-52
2022/06/03 00:13:09;;;;;;;;;;;;;;;24.14;50.84;99283.50;2083270;28;20015;-49
2022/06/03 00:14:31;;;;;;;;;;;;;;;24.12;50.80;99285.59;2085232;28;20355;-48
2022/06/03 00:15:41;;;;;;;;;;;;;;;24.12;50.81;99285.59;2090023;28;19923;-49
2022/06/03 00:16:57;;;;;;;;;;;;;;;24.12;50.81;99297.44;2083921;28;20023;-49
2022/06/03 00:18:03;;;;;;;;;;;;;;;24.13;50.68;99298.28;2089118;28;20030;-50
2022/06/03 00:19:04;;;;;;;;;;;;;;;24.13;50.65;99292.78;2089570;28;19922;-48
2022/06/03 00:20:04;;;;;;;;;;;;;;;24.13;50.69;99299.16;2101223;28;20321;-51
2022/06/03 00:21:07;;;;;;;;;;;;;;;24.11;50.63;99290.25;2086075;28;19916;-50
2022/06/03 00:22:19;;;;;;;;;;;;;;;24.11;50.55;99294.91;2084439;28;20387;-49
2022/06/03 00:23:38;;;;;;;;;;;;;;;24.11;50.64;99283.91;2083892;28;19923;-50
2022/06/03 00:24:56;;;;;;;;;;;;;;;24.11;50.74;99278.41;2078252;28;20182;-48
2022/06/03 00:26:12;;;;;;;;;;;;;;;24.10;50.79;99272.03;2080661;28;19935;-50
2022/06/03 00:27:18;;;;;;;;;;;;;;;24.10;50.69;99277.53;2081416;28;19963;-48
2022/06/03 00:28:28;;;;;;;;;;;;;;;24.11;50.81;99278.41;2078399;28;19909;-50
2022/06/03 00:29:32;;;;;;;;;;;;;;;24.10;50.62;99283.03;2084072;28;19924;-48
2022/06/03 00:30:39;;;;;;;;;;;;;;;24.11;50.85;99278.41;2078048;28;19927;-50
2022/06/03 00:31:39;;;;;;;;;;;;;;;24.10;50.71;99282.19;2078840;28;19983;-49
2022/06/03 00:32:40;;;;;;;;;;;;;;;24.11;50.73;99278.41;2080780;28;20002;-51
2022/06/03 00:33:57;;;;;;;;;;;;;;;24.10;50.68;99271.19;2078395;28;19928;-50
2022/06/03 00:35:06;;;;;;;;;;;;;;;24.10;50.79;99268.41;2079354;28;20353;-50
2022/06/03 00:36:26;;;;;;;;;;;;;;;24.10;50.79;99271.19;2079016;28;19909;-49
2022/06/03 00:37:26;;;;;;;;;;;;;;;24.11;50.88;99278.41;2080193;28;19928;-48
2022/06/03 00:38:45;;;;;;;;;;;;;;;24.11;50.85;99272.91;2080596;28;20262;-48
2022/06/03 00:39:55;;;;;;;;;;;;;;;24.11;50.96;99275.66;2081209;28;19916;-52
2022/06/03 00:40:55;;;;;;;;;;;;;;;24.10;50.75;99276.69;2080434;28;20861;-52
2022/06/03 00:42:15;;;;;;;;;;;;;;;24.10;50.78;99273.94;2085135;28;19917;-51
2022/06/03 00:43:31;;;;;;;;;;;;;;;24.11;50.78;99278.41;2081942;28;19916;-51
2022/06/03 00:44:32;;;;;;;;;;;;;;;24.10;50.82;99280.28;2080151;28;19916;-52
2022/06/03 00:45:40;;;;;;;;;;;;;;;24.11;50.73;99278.41;2084922;28;19967;-52
2022/06/03 00:46:59;;;;;;;;;;;;;;;24.11;50.82;99281.16;2082699;28;19970;-49
2022/06/03 00:48:18;;;;;;;;;;;;;;;24.10;50.82;99274.78;2078699;28;19912;-51
2022/06/03 00:49:18;;;;;;;;;;;;;;;24.11;50.77;99278.41;2076441;28;19908;-52
2022/06/03 00:50:48;;;;;;;;;;;;;;;24.10;50.71;99272.03;2080293;28;19916;-51
2022/06/03 00:52:00;;;;;;;;;;;;;;;24.10;50.94;99271.19;2073361;28;20213;-52
2022/06/03 00:53:13;;;;;;;;;;;;;;;24.10;50.90;99265.66;2082291;28;19921;-52
2022/06/03 00:54:16;;;;;;;;;;;;;;;24.09;50.83;99270.34;2080460;28;19923;-52
2022/06/03 00:55:36;;;;;;;;;;;;;;;24.10;50.87;99268.41;2086356;28;19916;-51
2022/06/03 00:56:50;;;;;;;;;;;;;;;24.10;50.94;99265.66;2083639;28;20443;-51
2022/06/03 00:58:13;;;;;;;;;;;;;;;24.10;50.91;99271.19;2080569;28;19916;-51
2022/06/03 00:59:35;;;;;;;;;;;;;;;24.09;50.99;99275.00;2084647;28;20378;-52
2022/06/03 01:00:41;;;;;;;;;;;;;;;24.09;50.73;99280.50;2079122;28;20944;-52
2022/06/03 01:01:47;;;;;;;;;;;;;;;24.08;50.76;99284.28;2078883;28;19917;-52
2022/06/03 01:02:51;;;;;;;;;;;;;;;24.08;50.76;99290.66;2082250;28;19915;-51
2022/06/03 01:03:51;;;;;;;;;;;;;;;24.09;50.69;99297.03;2081490;28;19924;-51
2022/06/03 01:05:14;;;;;;;;;;;;;;;24.08;50.65;99298.06;2084125;28;19923;-51
2022/06/03 01:06:21;;;;;;;;;;;;;;;24.07;50.66;99304.63;2077498;28;19913;-52
2022/06/03 01:07:40;;;;;;;;;;;;;;;24.08;50.58;99300.81;2077031;28;19916;-52
2022/06/03 01:08:59;;;;;;;;;;;;;;;24.07;50.59;99299.97;2079556;28;20011;-52
2022/06/03 01:10:20;;;;;;;;;;;;;;;24.08;50.70;99311.81;2079535;28;19912;-52
2022/06/03 01:11:39;;;;;;;;;;;;;;;24.08;50.80;99328.34;2077965;28;20011;-50
2022/06/03 01:12:39;;;;;;;;;;;;;;;24.09;50.68;99330.06;2092156;28;19963;-51
2022/06/03 01:13:58;;;;;;;;;;;;;;;24.08;50.86;99336.59;2085133;28;21370;-52
2022/06/03 01:14:58;;;;;;;;;;;;;;;24.09;50.91;99343.81;2079333;28;20095;-51
2022/06/03 01:16:17;;;;;;;;;;;;;;;24.08;50.80;99367.75;2077839;28;21143;-51
2022/06/03 01:17:20;;;;;;;;;;;;;;;24.08;50.87;99378.78;2083468;28;20261;-52
2022/06/03 01:18:39;;;;;;;;;;;;;;;24.09;50.90;99385.13;2085979;28;19919;-49
2022/06/03 01:19:46;;;;;;;;;;;;;;;24.09;51.10;99393.38;2082685;28;19924;-51
2022/06/03 01:21:01;;;;;;;;;;;;;;;24.08;51.06;99399.91;2079651;28;19967;-51
2022/06/03 01:22:22;;;;;;;;;;;;;;;24.08;51.11;99410.94;2076727;28;20239;-52
2022/06/03 01:23:41;;;;;;;;;;;;;;;24.08;51.15;99416.44;2070732;28;19921;-50
2022/06/03 01:24:41;;;;;;;;;;;;;;;24.07;51.15;99410.09;2088519;28;20017;-48
2022/06/03 01:25:44;;;;;;;;;;;;;;;24.07;51.19;99409.25;2084383;28;19961;-48
2022/06/03 01:27:03;;;;;;;;;;;;;;;24.07;51.22;99414.75;2082329;28;19920;-47
2022/06/03 01:28:25;;;;;;;;;;;;;;;24.07;51.15;99431.28;2084579;28;20630;-48
2022/06/03 01:29:25;;;;;;;;;;;;;;;24.07;51.25;99442.28;2086933;28;19923;-51
2022/06/03 01:30:38;;;;;;;;;;;;;;;24.07;51.22;99436.78;2084817;28;19916;-49
2022/06/03 01:31:57;;;;;;;;;;;;;;;24.07;51.18;99436.78;2085338;28;19920;-51
2022/06/03 01:32:57;;;;;;;;;;;;;;;24.07;51.24;99431.28;2085386;28;20286;-50
2022/06/03 01:34:30;;;;;;;;;;;;;;;24.06;51.21;99433.19;2082126;28;19974;-52
2022/06/03 01:35:49;;;;;;;;;;;;;;;24.05;51.09;99431.47;2075159;28;20016;-50
2022/06/03 01:36:55;;;;;;;;;;;;;;;24.06;51.24;99430.44;2082560;28;19908;-51
2022/06/03 01:37:58;;;;;;;;;;;;;;;24.06;51.18;99429.56;2090053;28;20477;-51
2022/06/03 01:39:14;;;;;;;;;;;;;;;24.06;51.21;99430.44;2083365;28;20386;-52
2022/06/03 01:40:14;;;;;;;;;;;;;;;24.05;51.19;99434.22;2084163;28;19987;-52
2022/06/03 01:41:33;;;;;;;;;;;;;;;24.07;51.25;99442.28;2081365;28;19913;-51
2022/06/03 01:42:48;;;;;;;;;;;;;;;24.06;51.21;99441.44;2080991;28;20231;-51
2022/06/03 01:43:49;;;;;;;;;;;;;;;24.06;51.28;99432.34;2080791;28;19939;-53
2022/06/03 01:45:07;;;;;;;;;;;;;;;24.06;51.23;99432.34;2078621;28;19909;-51
2022/06/03 01:46:11;;;;;;;;;;;;;;;24.05;51.31;99422.34;2081334;28;19916;-53
2022/06/03 01:47:17;;;;;;;;;;;;;;;24.05;51.20;99427.84;2083266;28;19947;-52
2022/06/03 01:48:26;;;;;;;;;;;;;;;24.04;51.19;99420.66;2077115;28;19913;-51
2022/06/03 01:49:26;;;;;;;;;;;;;;;24.04;51.17;99421.50;2091732;28;20379;-48
2022/06/03 01:50:33;;;;;;;;;;;;;;;24.04;51.03;99420.66;2091207;28;19920;-49
2022/06/03 01:51:47;;;;;;;;;;;;;;;24.02;51.03;99422.75;2082149;28;19995;-52
2022/06/03 01:52:47;;;;;;;;;;;;;;;24.03;51.07;99427.19;2080437;28;19920;-52
2022/06/03 01:53:50;;;;;;;;;;;;;;;24.02;50.88;99429.09;2084891;28;20049;-52
2022/06/03 01:55:00;;;;;;;;;;;;;;;24.03;50.90;99429.94;2078069;28;19912;-53
2022/06/03 01:56:19;;;;;;;;;;;;;;;24.02;50.83;99422.75;2082578;28;20319;-51
2022/06/03 01:57:34;;;;;;;;;;;;;;;24.03;50.82;99427.19;2082163;28;20407;-50
2022/06/03 01:59:03;;;;;;;;;;;;;;;24.03;50.81;99418.94;2084756;28;19916;-50
2022/06/03 02:00:12;;;;;;;;;;;;;;;24.03;50.84;99410.69;2081337;28;19923;-51
2022/06/03 02:01:22;;;;;;;;;;;;;;;24.03;50.96;99407.94;2082415;28;20501;-49
2022/06/03 02:02:41;;;;;;;;;;;;;;;24.02;50.98;99400.72;2091273;28;19916;-52
2022/06/03 02:03:47;;;;;;;;;;;;;;;24.03;50.99;99391.41;2082703;28;19908;-52
2022/06/03 02:04:48;;;;;;;;;;;;;;;24.02;51.12;99396.06;2082921;28;19939;-51
2022/06/03 02:05:54;;;;;;;;;;;;;;;24.02;51.07;99384.22;2089581;28;20236;-51
2022/06/03 02:07:06;;;;;;;;;;;;;;;24.02;51.18;99392.47;2081811;28;19913;-49
2022/06/03 02:08:09;;;;;;;;;;;;;;;24.02;51.34;99385.06;2077865;28;19955;-50
2022/06/03 02:09:09;;;;;;;;;;;;;;;24.03;51.31;99383.16;2079799;28;19916;-48
2022/06/03 02:10:10;;;;;;;;;;;;;;;24.03;51.34;99388.66;2085756;28;19943;-50
2022/06/03 02:11:16;;;;;;;;;;;;;;;24.02;51.27;99381.47;2084885;28;19959;-49
2022/06/03 02:12:17;;;;;;;;;;;;;;;24.02;51.58;99384.22;2079097;28;20121;-50
2022/06/03 02:13:26;;;;;;;;;;;;;;;24.03;51.37;99391.41;2082919;28;19917;-48
2022/06/03 02:14:45;;;;;;;;;;;;;;;24.02;51.49;99386.97;2076715;28;19916;-49
2022/06/03 02:15:45;;;;;;;;;;;;;;;24.02;51.49;99382.31;2077124;28;19932;-49
2022/06/03 02:16:48;;;;;;;;;;;;;;;24.03;51.56;99391.41;2080594;28;20348;-47
2022/06/03 02:18:01;;;;;;;;;;;;;;;24.03;51.59;99396.91;2081022;28;19916;-48
2022/06/03 02:19:02;;;;;;;;;;;;;;;24.02;51.64;99396.06;2076894;28;20295;-49
2022/06/03 02:20:08;;;;;;;;;;;;;;;24.03;51.59;99407.94;2076851;28;19916;-50
2022/06/03 02:21:08;;;;;;;;;;;;;;;24.03;51.68;99407.94;2081223;28;19908;-49
2022/06/03 02:22:09;;;;;;;;;;;;;;;24.03;51.69;99418.94;2077467;28;19908;-48
2022/06/03 02:23:18;;;;;;;;;;;;;;;24.03;51.68;99413.44;2078223;28;19962;-50
2022/06/03 02:24:18;;;;;;;;;;;;;;;24.02;51.80;99418.09;2082493;28;19960;-51
2022/06/03 02:25:43;;;;;;;;;;;;;;;24.03;51.79;99421.69;2078683;28;21007;-49
2022/06/03 02:27:02;;;;;;;;;;;;;;;24.01;51.79;99408.16;2081193;28;20478;-49
2022/06/03 02:28:10;;;;;;;;;;;;;;;24.01;51.93;99404.50;2082977;28;20353;-49
2022/06/03 02:30:48;;;;;;;;;;;;;;;24.00;51.93;99398.16;2082021;28;20951;-51
2022/06/03 02:31:49;;;;;;;;;;;;;;;24.00;51.93;99403.69;2083289;28;20308;-49
2022/06/03 02:32:52;;;;;;;;;;;;;;;23.99;51.97;99401.13;2081242;28;19924;-51
2022/06/03 02:33:58;;;;;;;;;;;;;;;23.99;51.86;99401.97;2080439;28;20017;-48
2022/06/03 02:34:59;;;;;;;;;;;;;;;24.00;51.90;99400.06;2082173;28;19986;-51
2022/06/03 02:36:11;;;;;;;;;;;;;;;23.99;51.90;99398.38;2079731;28;20227;-48
2022/06/03 02:37:33;;;;;;;;;;;;;;;24.00;51.96;99398.16;2086752;28;20207;-51
2022/06/03 02:38:44;;;;;;;;;;;;;;;24.00;51.92;99397.31;2084374;28;19924;-48
2022/06/03 02:39:56;;;;;;;;;;;;;;;24.00;51.90;99392.66;2084403;28;19916;-48
2022/06/03 02:41:05;;;;;;;;;;;;;;;24.00;51.82;99403.69;2079030;28;19920;-50
2022/06/03 02:42:22;;;;;;;;;;;;;;;24.00;51.75;99400.91;2077052;28;19951;-49
2022/06/03 02:43:41;;;;;;;;;;;;;;;24.00;51.75;99398.16;2083236;28;20030;-50
2022/06/03 02:45:13;;;;;;;;;;;;;;;24.01;51.74;99399.00;2081973;28;20019;-50
2022/06/03 02:46:28;;;;;;;;;;;;;;;24.00;51.76;99398.16;2065380;28;20347;-49
2022/06/03 02:47:47;;;;;;;;;;;;;;;24.00;51.79;99391.81;2076163;28;20103;-47
2022/06/03 02:48:47;;;;;;;;;;;;;;;24.00;51.75;99391.81;2076425;28;19913;-48
2022/06/03 02:50:06;;;;;;;;;;;;;;;23.99;51.87;99390.13;2078289;28;20658;-47
2022/06/03 02:51:39;;;;;;;;;;;;;;;23.99;51.76;99390.13;2083056;28;20296;-50
2022/06/03 02:52:48;;;;;;;;;;;;;;;23.99;51.94;99390.13;2072825;28;19917;-50
2022/06/03 02:54:08;;;;;;;;;;;;;;;23.99;51.93;99384.63;2077932;28;21018;-50
2022/06/03 02:55:14;;;;;;;;;;;;;;;23.98;51.97;99389.25;2077223;28;20090;-48
2022/06/03 02:56:26;;;;;;;;;;;;;;;23.99;52.13;99384.63;2086164;28;19916;-51
2022/06/03 02:57:26;;;;;;;;;;;;;;;23.98;51.99;99377.41;2085304;28;19917;-47
2022/06/03 02:58:29;;;;;;;;;;;;;;;23.99;52.04;99379.97;2082201;28;20464;-48
2022/06/03 02:59:36;;;;;;;;;;;;;;;23.99;52.07;99381.88;2082328;28;20064;-49
2022/06/03 03:00:45;;;;;;;;;;;;;;;23.99;52.01;99384.63;2087978;28;19912;-47
2022/06/03 03:01:48;;;;;;;;;;;;;;;23.99;52.06;99381.88;2080109;28;20048;-48
2022/06/03 03:03:04;;;;;;;;;;;;;;;23.99;52.01;99379.13;2085770;28;19975;-49
2022/06/03 03:04:23;;;;;;;;;;;;;;;23.99;52.06;99370.84;2090012;28;19947;-51
2022/06/03 03:05:41;;;;;;;;;;;;;;;24.00;52.04;99372.53;2088389;28;20007;-48
2022/06/03 03:06:48;;;;;;;;;;;;;;;23.99;52.06;99374.47;2083711;28;20001;-48
2022/06/03 03:07:58;;;;;;;;;;;;;;;23.98;52.09;99371.88;2083423;28;19916;-49
2022/06/03 03:09:23;;;;;;;;;;;;;;;23.99;52.20;99379.13;2088857;28;20342;-48
2022/06/03 03:10:24;;;;;;;;;;;;;;;23.99;52.08;99381.88;2082197;28;19935;-48
2022/06/03 03:11:41;;;;;;;;;;;;;;;24.00;52.09;99383.56;2082587;28;19917;-52
2022/06/03 03:13:00;;;;;;;;;;;;;;;23.98;52.14;99375.50;2084365;28;20021;-52
2022/06/03 03:14:19;;;;;;;;;;;;;;;23.98;52.07;99377.41;2083473;28;20106;-50
2022/06/03 03:15:32;;;;;;;;;;;;;;;24.00;52.08;99378.06;2082651;28;20366;-50
2022/06/03 03:16:50;;;;;;;;;;;;;;;23.98;52.04;99378.25;2082242;28;19970;-51
2022/06/03 03:18:09;;;;;;;;;;;;;;;23.97;52.15;99371.03;2082544;28;19916;-51
2022/06/03 03:19:38;;;;;;;;;;;;;;;23.96;52.25;99375.72;2078530;28;19905;-51
2022/06/03 03:20:59;;;;;;;;;;;;;;;23.96;52.25;99366.59;2073586;28;19913;-52
2022/06/03 03:21:59;;;;;;;;;;;;;;;23.96;52.18;99358.34;2042529;28;19966;-51
2022/06/03 03:23:02;;;;;;;;;;;;;;;23.96;52.22;99363.84;2071410;28;20342;-51
2022/06/03 03:24:26;;;;;;;;;;;;;;;23.95;52.24;99368.47;2080277;28;19920;-50
2022/06/03 03:25:35;;;;;;;;;;;;;;;23.95;52.25;99365.72;2081544;28;19916;-51
2022/06/03 03:26:38;;;;;;;;;;;;;;;23.96;52.32;99350.09;2078640;28;19916;-52
2022/06/03 03:27:57;;;;;;;;;;;;;;;23.97;52.25;99349.03;2080477;28;19909;-52
2022/06/03 03:29:16;;;;;;;;;;;;;;;23.96;52.15;99339.91;2077492;28;20362;-51
2022/06/03 03:30:21;;;;;;;;;;;;;;;23.96;52.19;99330.81;2083902;28;20209;-52
2022/06/03 03:31:22;;;;;;;;;;;;;;;23.95;52.24;99329.94;2081277;28;20011;-52
2022/06/03 03:32:28;;;;;;;;;;;;;;;23.96;52.19;99331.66;2078253;28;20331;-51
2022/06/03 03:33:29;;;;;;;;;;;;;;;23.96;52.18;99333.56;2086499;28;19916;-52
2022/06/03 03:34:48;;;;;;;;;;;;;;;23.96;52.15;99325.31;2078524;28;19989;-50
2022/06/03 03:35:48;;;;;;;;;;;;;;;23.96;52.12;99320.66;2078397;28;20563;-52
2022/06/03 03:37:07;;;;;;;;;;;;;;;23.95;52.22;99318.94;2085335;28;19916;-51
2022/06/03 03:38:19;;;;;;;;;;;;;;;23.96;52.08;99311.56;2082143;28;19920;-52
2022/06/03 03:39:20;;;;;;;;;;;;;;;23.96;52.14;99311.56;2080044;28;19923;-50
2022/06/03 03:40:32;;;;;;;;;;;;;;;23.96;52.16;99292.28;2082368;28;19989;-52
2022/06/03 03:41:36;;;;;;;;;;;;;;;23.95;52.15;99296.91;2088023;28;19916;-52
2022/06/03 03:42:52;;;;;;;;;;;;;;;23.95;52.10;99288.66;2081582;28;19956;-50
2022/06/03 03:44:05;;;;;;;;;;;;;;;23.96;52.12;99284.03;2079858;28;20639;-53
2022/06/03 03:45:26;;;;;;;;;;;;;;;23.94;52.10;99286.97;2083646;28;19927;-52
2022/06/03 03:46:45;;;;;;;;;;;;;;;23.95;52.14;99283.16;2083016;28;19974;-51
2022/06/03 03:47:49;;;;;;;;;;;;;;;23.96;52.16;99295.03;2081872;28;19977;-52
2022/06/03 03:49:09;;;;;;;;;;;;;;;23.95;52.12;99291.41;2083983;28;19916;-52
2022/06/03 03:50:09;;;;;;;;;;;;;;;23.95;52.24;99296.91;2076954;28;19908;-52
2022/06/03 03:51:29;;;;;;;;;;;;;;;23.95;52.21;99313.44;2081736;28;19934;-52
2022/06/03 03:52:56;;;;;;;;;;;;;;;23.95;52.16;99307.94;2082163;28;19915;-51
2022/06/03 03:54:09;;;;;;;;;;;;;;;23.94;52.27;99314.50;2081257;28;19924;-56
2022/06/03 03:55:15;;;;;;;;;;;;;;;23.94;52.27;99322.75;2082849;28;19999;-52
2022/06/03 03:56:31;;;;;;;;;;;;;;;23.94;52.27;99322.75;2077508;28;20003;-51
2022/06/03 03:57:50;;;;;;;;;;;;;;;23.94;52.24;99335.66;2081590;28;19997;-52
2022/06/03 03:59:12;;;;;;;;;;;;;;;23.93;52.30;99345.84;2082655;28;21318;-51
2022/06/03 04:00:32;;;;;;;;;;;;;;;23.94;52.20;99360.44;2080438;28;19970;-51
2022/06/03 04:01:47;;;;;;;;;;;;;;;23.93;52.39;99359.59;2082585;28;19924;-52
2022/06/03 04:02:53;;;;;;;;;;;;;;;23.93;52.39;99372.47;2085786;28;20238;-51
2022/06/03 04:04:12;;;;;;;;;;;;;;;23.93;52.32;99384.38;2083376;28;20516;-52
2022/06/03 04:05:32;;;;;;;;;;;;;;;23.94;52.32;99394.31;2081415;28;20280;-52
2022/06/03 04:06:39;;;;;;;;;;;;;;;23.93;52.29;99406.38;2078592;28;20204;-52
2022/06/03 04:07:48;;;;;;;;;;;;;;;23.95;52.31;99425.44;2085010;28;20003;-52
2022/06/03 04:08:52;;;;;;;;;;;;;;;23.94;52.38;99443.88;2082227;28;19920;-51
2022/06/03 04:09:52;;;;;;;;;;;;;;;23.95;52.39;99464.81;2087492;28;20304;-50
2022/06/03 04:11:01;;;;;;;;;;;;;;;23.94;52.41;99471.38;2092348;28;19923;-49
2022/06/03 04:12:20;;;;;;;;;;;;;;;23.95;52.32;99478.59;2079766;28;19920;-49
2022/06/03 04:13:39;;;;;;;;;;;;;;;23.93;52.36;99483.47;2077939;28;19996;-48
2022/06/03 04:14:50;;;;;;;;;;;;;;;23.94;52.48;99487.06;2080955;28;20430;-48
2022/06/03 04:15:54;;;;;;;;;;;;;;;23.94;52.52;99490.66;2080295;28;19916;-48
2022/06/03 04:17:13;;;;;;;;;;;;;;;23.93;52.44;99475.22;2078182;28;20277;-49
2022/06/03 04:18:22;;;;;;;;;;;;;;;23.92;52.64;99484.50;2085762;28;19920;-47
2022/06/03 04:19:34;;;;;;;;;;;;;;;23.92;52.58;99495.50;2084467;28;19916;-49
2022/06/03 04:20:34;;;;;;;;;;;;;;;23.93;52.93;99508.25;2079472;28;19971;-53
2022/06/03 04:21:53;;;;;;;;;;;;;;;23.94;52.83;99520.09;2080933;28;19966;-55
2022/06/03 04:23:03;;;;;;;;;;;;;;;23.93;52.74;99521.13;2083122;28;19919;-53
2022/06/03 04:24:16;;;;;;;;;;;;;;;23.93;52.66;99518.38;2081757;28;20018;-52
2022/06/03 04:25:19;;;;;;;;;;;;;;;23.94;52.75;99522.84;2080674;28;19916;-53
2022/06/03 04:26:20;;;;;;;;;;;;;;;23.93;52.70;99519.25;2080154;28;20133;-51
2022/06/03 04:27:40;;;;;;;;;;;;;;;23.95;52.77;99521.78;2074904;28;19919;-58
2022/06/03 04:28:56;;;;;;;;;;;;;;;23.93;52.91;99519.25;2077769;28;19920;-57
2022/06/03 04:30:14;;;;;;;;;;;;;;;23.95;53.12;99521.78;2080463;28;19923;-58
2022/06/03 04:31:34;;;;;;;;;;;;;;;23.95;52.83;99519.88;2078973;28;19916;-58
2022/06/03 04:32:53;;;;;;;;;;;;;;;23.95;52.71;99522.63;2085576;28;19908;-58
2022/06/03 04:34:16;;;;;;;;;;;;;;;23.95;52.72;99506.13;2087449;28;19979;-58
2022/06/03 04:35:19;;;;;;;;;;;;;;;23.96;52.87;99507.00;2077376;28;19917;-58
2022/06/03 04:36:20;;;;;;;;;;;;;;;23.98;52.82;99509.53;2078538;28;20187;-57
2022/06/03 04:37:32;;;;;;;;;;;;;;;23.98;52.83;99509.53;2084511;28;19917;-57
2022/06/03 04:38:51;;;;;;;;;;;;;;;23.99;52.77;99506.59;2083278;28;19985;-57
2022/06/03 04:39:54;;;;;;;;;;;;;;;24.00;52.81;99512.94;2077538;28;20347;-56
2022/06/03 04:40:58;;;;;;;;;;;;;;;24.00;52.92;99515.69;2085981;28;19916;-57
2022/06/03 04:42:25;;;;;;;;;;;;;;;23.99;52.88;99517.59;2082342;28;19932;-56
2022/06/03 04:43:40;;;;;;;;;;;;;;;24.01;53.04;99500.88;2081126;28;20020;-57
2022/06/03 04:44:41;;;;;;;;;;;;;;;24.01;52.97;99495.38;2079139;28;19924;-57
2022/06/03 04:45:59;;;;;;;;;;;;;;;24.01;53.05;99499.00;2082427;28;20239;-56
2022/06/03 04:47:12;;;;;;;;;;;;;;;24.01;53.06;99501.75;2083229;28;19924;-56
2022/06/03 04:48:28;;;;;;;;;;;;;;;24.01;53.10;99507.25;2078959;28;19933;-56
2022/06/03 04:49:54;;;;;;;;;;;;;;;24.02;53.02;99511.69;2083749;28;19980;-56
2022/06/03 04:51:00;;;;;;;;;;;;;;;24.03;53.11;99518.03;2077358;28;19913;-57
2022/06/03 04:52:06;;;;;;;;;;;;;;;24.03;53.02;99507.03;2083476;28;19951;-57
2022/06/03 04:53:30;;;;;;;;;;;;;;;24.03;53.06;99501.53;2080977;28;20633;-57
2022/06/03 04:54:30;;;;;;;;;;;;;;;24.02;53.02;99494.34;2068153;28;19927;-57
2022/06/03 04:55:42;;;;;;;;;;;;;;;24.02;52.99;99495.19;2077780;28;19920;-57
2022/06/03 04:57:08;;;;;;;;;;;;;;;24.03;53.07;99501.53;2083107;28;19958;-57
2022/06/03 04:58:45;;;;;;;;;;;;;;;24.02;53.06;99502.59;2080545;28;19923;-58
2022/06/03 04:59:45;;;;;;;;;;;;;;;24.03;52.91;99496.03;2082963;28;20011;-57
2022/06/03 05:00:46;;;;;;;;;;;;;;;24.02;52.98;99488.81;2080183;28;20102;-57
2022/06/03 05:02:04;;;;;;;;;;;;;;;24.01;52.73;99493.47;2079036;28;19943;-56
2022/06/03 05:03:24;;;;;;;;;;;;;;;24.02;53.10;99491.56;2078620;28;20166;-56
2022/06/03 05:04:42;;;;;;;;;;;;;;;24.02;53.13;99477.81;2084537;28;20243;-56
2022/06/03 05:05:49;;;;;;;;;;;;;;;24.02;53.07;99486.06;2081927;28;19908;-56
2022/06/03 05:06:55;;;;;;;;;;;;;;;24.01;53.12;99482.47;2081033;28;20341;-56
2022/06/03 05:07:55;;;;;;;;;;;;;;;24.00;53.11;99482.66;2080353;28;19999;-59
2022/06/03 05:09:01;;;;;;;;;;;;;;;24.01;53.10;99481.59;2077672;28;19924;-57
2022/06/03 05:10:10;;;;;;;;;;;;;;;24.00;53.20;99479.91;2083011;28;20035;-53
2022/06/03 05:11:29;;;;;;;;;;;;;;;24.01;53.08;99481.59;2082136;28;19924;-57
2022/06/03 05:12:53;;;;;;;;;;;;;;;24.02;53.33;99489.66;2080338;28;19912;-57
2022/06/03 05:14:24;;;;;;;;;;;;;;;24.02;53.29;99486.06;2081858;27;19951;-55
2022/06/03 05:15:45;;;;;;;;;;;;;;;24.03;53.38;99491.38;2083486;28;19908;-55
2022/06/03 05:17:03;;;;;;;;;;;;;;;24.03;53.47;99485.00;2085444;28;19908;-57
2022/06/03 05:18:17;;;;;;;;;;;;;;;24.04;53.39;99486.72;2079608;28;19969;-55
2022/06/03 05:19:30;;;;;;;;;;;;;;;24.04;53.46;99489.50;2077718;28;19905;-55
2022/06/03 05:20:40;;;;;;;;;;;;;;;24.05;53.33;99491.19;2081763;28;19921;-53
2022/06/03 05:21:52;;;;;;;;;;;;;;;24.05;53.49;99488.44;2079859;28;20275;-54
2022/06/03 05:23:12;;;;;;;;;;;;;;;24.05;53.51;99493.94;2081016;28;19916;-51
2022/06/03 05:24:13;;;;;;;;;;;;;;;24.06;53.53;99492.91;2086735;28;19962;-53
2022/06/03 05:25:36;;;;;;;;;;;;;;;24.06;53.50;99504.75;2080658;28;19917;-52
2022/06/03 05:26:36;;;;;;;;;;;;;;;24.06;53.62;99506.66;2082481;28;19916;-52
2022/06/03 05:27:56;;;;;;;;;;;;;;;24.06;53.60;99506.66;2080943;28;20343;-55
2022/06/03 05:29:05;;;;;;;;;;;;;;;24.06;53.58;99506.66;2080755;28;19917;-55
2022/06/03 05:30:12;;;;;;;;;;;;;;;24.06;53.67;99506.66;2082799;28;19912;-55
2022/06/03 05:31:31;;;;;;;;;;;;;;;24.05;53.48;99502.19;2082046;28;19942;-55
2022/06/03 05:32:40;;;;;;;;;;;;;;;24.05;53.41;99499.44;2084134;28;19915;-55
2022/06/03 05:33:46;;;;;;;;;;;;;;;24.05;53.24;99499.44;2077264;28;20178;-50
2022/06/03 05:35:13;;;;;;;;;;;;;;;24.05;53.49;99502.19;2089663;28;19923;-47
2022/06/03 05:36:31;;;;;;;;;;;;;;;24.04;53.40;99486.72;2086279;28;19916;-47
2022/06/03 05:37:44;;;;;;;;;;;;;;;24.05;53.46;99489.28;2080179;28;19909;-47
2022/06/03 05:38:47;;;;;;;;;;;;;;;24.04;53.36;99486.72;2077069;28;20281;-49
2022/06/03 05:40:12;;;;;;;;;;;;;;;24.04;53.36;99489.50;2080366;28;20019;-50
2022/06/03 05:42:37;;;;;;;;;;;;;;;24.04;53.38;99492.25;2079658;28;20128;-47
2022/06/03 05:44:07;;;;;;;;;;;;;;;24.03;53.47;99498.78;2084954;28;20553;-52
2022/06/03 05:45:25;;;;;;;;;;;;;;;24.04;53.31;99519.78;2059654;28;20072;-52
2022/06/03 05:46:31;;;;;;;;;;;;;;;24.02;53.41;99525.47;2068068;28;19936;-52
2022/06/03 05:47:40;;;;;;;;;;;;;;;24.03;53.47;99524.41;2080998;28;19923;-52
2022/06/03 05:48:50;;;;;;;;;;;;;;;24.05;53.68;99524.22;2077256;28;19924;-52
2022/06/03 05:50:07;;;;;;;;;;;;;;;24.04;53.60;99519.78;2082760;28;20484;-52
2022/06/03 05:51:26;;;;;;;;;;;;;;;24.04;53.50;99525.28;2081514;28;19929;-51
2022/06/03 05:52:38;;;;;;;;;;;;;;;24.04;53.58;99515.13;2083097;28;20027;-51
2022/06/03 05:53:53;;;;;;;;;;;;;;;24.05;53.80;99507.69;2082428;28;19917;-51
2022/06/03 05:55:15;;;;;;;;;;;;;;;24.05;53.57;99505.78;2080311;28;19917;-52
2022/06/03 05:56:21;;;;;;;;;;;;;;;24.06;53.75;99513.03;2076512;28;20491;-52
2022/06/03 05:57:31;;;;;;;;;;;;;;;24.06;53.72;99524.03;2082092;28;19913;-51
2022/06/03 05:58:40;;;;;;;;;;;;;;;24.05;53.64;99516.81;2082605;28;19931;-51
2022/06/03 05:59:58;;;;;;;;;;;;;;;24.06;53.98;99523.19;2087759;28;20221;-52
2022/06/03 06:01:08;;;;;;;;;;;;;;;24.06;53.83;99517.69;2076298;28;19916;-51
2022/06/03 06:02:18;;;;;;;;;;;;;;;24.07;53.82;99517.47;2081193;28;19990;-52
2022/06/03 06:03:21;;;;;;;;;;;;;;;24.07;53.78;99508.34;2078888;28;19921;-52
2022/06/03 06:04:24;;;;;;;;;;;;;;;24.07;53.74;99509.19;2085508;28;19962;-50
2022/06/03 06:05:51;;;;;;;;;;;;;;;24.07;53.68;99509.19;2076357;28;20323;-51
2022/06/03 06:06:56;;;;;;;;;;;;;;;24.07;53.70;99508.34;2074329;28;19928;-50
2022/06/03 06:08:13;;;;;;;;;;;;;;;24.07;53.74;99508.34;2080987;28;20023;-51
2022/06/03 06:09:22;;;;;;;;;;;;;;;24.06;53.54;99513.03;2079868;28;20037;-49
2022/06/03 06:10:39;;;;;;;;;;;;;;;24.06;53.29;99512.16;2076364;28;19916;-45
2022/06/03 06:11:54;;;;;;;;;;;;;;;24.05;53.30;99516.81;2074882;28;19995;-47
2022/06/03 06:13:01;;;;;;;;;;;;;;;24.06;53.33;99512.16;2078107;28;19927;-48
2022/06/03 06:14:04;;;;;;;;;;;;;;;24.05;53.42;99503.03;2078630;28;20418;-47
2022/06/03 06:15:14;;;;;;;;;;;;;;;24.05;53.42;99496.69;2076177;28;19944;-47
2022/06/03 06:16:20;;;;;;;;;;;;;;;24.03;53.49;99480.34;2083866;28;20085;-48
2022/06/03 06:17:23;;;;;;;;;;;;;;;24.03;53.60;99485.84;2077978;28;20245;-46